Austinville, Pennsylvania
Current Conditions -  °F | °C
As of 6:53 AM on Monday 22 Dec 2014 (Local Time) from KELM Reporting Station
Overcast Overcast  
Wind Chill: -8°   Ceiling: 1400
Heat Index: -3°   Visibility: 10mi
Dew Point: -6°   Wind: 7mph
Humidity: 81%   Direction: 180°S
Pressure: 30.27"   Gusts: NA
Location:  41.8495°N, 76.7925°W
Report Text: KELM 221153Z 18006KT 10SM OVC014 M03/M06 A3027 RMK AO2 SLP262 T10331061 11017 21039 53002
Loading
Personal Weather Stations






























Interactive Weather Map New forecast layout! Learn more

10-Day Weather Forecast

Advertisements
Track Severe Weather on mobile